Stations météo

réclame
Mon MeteoGroup
Kristianstad, Suède (2651): Température de l'air & dewpoint: 17.10.2018 22:00:00 - 23.10.2018 22:00:00 (CEST)Kristianstad, Suède (2651): Vitesse du vent: 17.10.2018 22:00:00 - 23.10.2018 22:00:00 (CEST)Kristianstad, Suède (2651): Direction du vent: 17.10.2018 22:00:00 - 23.10.2018 22:00:00 (CEST)Kristianstad, Suède (2651): visibility: 17.10.2018 22:00:00 - 23.10.2018 22:00:00 (CEST)
Date & Time tt [°C] td [°C] ff [km/h] ff [knt] dd vv [km]
23.10.2018 22:00:00 7,0 4,0 26 14 W 10
23.10.2018 21:00:00 10,0 6,0 26 14 WNW 10
23.10.2018 20:00:00 10,0 6,0 26 14 WNW 10
23.10.2018 19:00:00 11,0 6,0 28 15 WNW 10
23.10.2018 18:00:00 11,0 6,0 24 13 WNW 10
23.10.2018 17:00:00 11,0 7,0 26 14 WNW 10
23.10.2018 16:00:00 11,0 8,0 29 16 WNW 10
23.10.2018 15:00:00 12,0 9,0 26 14 WNW 10
23.10.2018 14:00:00 11,0 8,0 34 18 W 10
23.10.2018 13:00:00 12,0 8,0 35 19 WNW 10
23.10.2018 12:00:00 12,0 8,0 31 17 WNW 10
23.10.2018 11:00:00 10,0 9,0 31 17 W 9
23.10.2018 10:00:00 10,0 9,0 29 16 W 10
23.10.2018 09:00:00 10,0 9,0 28 15 W 7
23.10.2018 08:00:00 10,0 9,0 31 17 W 10
23.10.2018 07:00:00 9,0 8,0 31 17 WSW 8
23.10.2018 06:00:00 9,0 8,0 31 17 WSW 10
23.10.2018 05:00:00 9,0 8,0 29 16 WSW 10
23.10.2018 04:00:00 8,0 7,0 28 15 SW 10
23.10.2018 03:00:00 8,0 6,0 26 14 SW 10
23.10.2018 02:00:00 8,0 6,0 24 13 SW 10
23.10.2018 01:00:00 8,0 5,0 22 12 WSW 10
23.10.2018 00:00:00 8,0 4,0 22 12 WSW 10
22.10.2018 23:00:00 8,0 4,0 16 9 SW 10
22.10.2018 22:00:00 8,0 3,0 15 8 W 10
22.10.2018 21:00:00 8,0 4,0 15 8 W 10
22.10.2018 20:00:00 8,0 4,0 13 7 W 10
22.10.2018 19:00:00 9,0 4,0 16 9 W 10
22.10.2018 18:00:00 9,0 4,0 16 9 W 10
22.10.2018 17:00:00 11,0 4,0 24 13 WNW 10
22.10.2018 16:00:00 11,0 4,0 29 16 WNW 10
22.10.2018 15:00:00 - - - - - -
22.10.2018 14:00:00 11,0 2,0 34 18 WNW 10
22.10.2018 13:00:00 11,0 4,0 26 14 NW 10
22.10.2018 12:00:00 12,0 5,0 31 17 WNW 10
22.10.2018 11:00:00 11,0 7,0 22 12 WNW 10
22.10.2018 10:00:00 10,0 7,0 18 10 W 10
22.10.2018 09:00:00 9,0 7,0 13 7 W 10
22.10.2018 08:00:00 10,0 7,0 18 10 WNW 10
22.10.2018 07:00:00 11,0 8,0 21 11 WNW 10
22.10.2018 06:00:00 11,0 9,0 16 9 WNW 10
22.10.2018 05:00:00 12,0 11,0 18 10 WNW 10
22.10.2018 04:00:00 13,0 11,0 18 10 WSW 5
22.10.2018 03:00:00 13,0 11,0 18 10 SW 4,0
22.10.2018 02:00:00 13,0 11,0 21 11 SW 3,4
22.10.2018 01:00:00 13,0 11,0 16 9 SW 4,7
22.10.2018 00:00:00 13,0 11,0 18 10 SW 5
21.10.2018 23:00:00 13,0 11,0 16 9 SW 6
21.10.2018 22:00:00 13,0 11,0 21 11 SW 7
21.10.2018 21:00:00 12,0 11,0 16 9 SSW 9
21.10.2018 20:00:00 12,0 10,0 15 8 SSW 10
21.10.2018 19:00:00 12,0 10,0 11 6 SSW 10
21.10.2018 18:00:00 12,0 10,0 13 7 SSW 10
21.10.2018 17:00:00 13,0 10,0 13 7 SW 10
21.10.2018 16:00:00 13,0 10,0 13 7 SW 10
21.10.2018 15:00:00 13,0 9,0 18 10 SW 10
21.10.2018 14:00:00 13,0 9,0 16 9 WSW 10
21.10.2018 13:00:00 13,0 8,0 15 8 SW 10
21.10.2018 12:00:00 13,0 7,0 13 7 SW 10
21.10.2018 11:00:00 11,0 9,0 11 6 SSW 10
21.10.2018 10:00:00 8,0 8,0 9 5 S 10
21.10.2018 09:00:00 3,0 3,0 0 0 N 0,2
21.10.2018 08:00:00 3,0 3,0 0 0 N 0,2
21.10.2018 07:00:00 3,0 3,0 4 2 S 0,2
21.10.2018 06:00:00 3,0 3,0 0 0 N 3,9
21.10.2018 05:00:00 2,0 2,0 4 2 - 0,4
21.10.2018 04:00:00 2,0 2,0 4 2 W 0,3
21.10.2018 03:00:00 1,0 1,0 0 0 N 0,2
21.10.2018 02:00:00 4,0 4,0 0 0 N 0,2
21.10.2018 01:00:00 6,0 6,0 8 4 W 1,4
21.10.2018 00:00:00 6,0 6,0 8 4 W 1,9
20.10.2018 23:00:00 7,0 6,0 8 4 W 10
20.10.2018 22:00:00 8,0 7,0 11 6 W 10
20.10.2018 21:00:00 8,0 7,0 8 4 W 10
20.10.2018 20:00:00 7,0 7,0 5 3 W 10
20.10.2018 19:00:00 9,0 7,0 11 6 WNW 10
20.10.2018 18:00:00 10,0 7,0 5 3 WNW 10
20.10.2018 17:00:00 12,0 9,0 15 8 W 10
20.10.2018 16:00:00 11,0 9,0 5 3 - 10
20.10.2018 15:00:00 11,0 9,0 8 4 NW 9
20.10.2018 14:00:00 12,0 9,0 11 6 WNW 10
20.10.2018 13:00:00 11,0 8,0 13 7 W 10
20.10.2018 12:00:00 10,0 7,0 13 7 WSW 10
20.10.2018 11:00:00 10,0 7,0 11 6 WSW 10
20.10.2018 10:00:00 10,0 6,0 11 6 W 10
20.10.2018 09:00:00 9,0 5,0 11 6 W 10
20.10.2018 08:00:00 8,0 5,0 8 4 W 10
20.10.2018 07:00:00 9,0 6,0 8 4 WSW 10
20.10.2018 06:00:00 9,0 5,0 5 3 WSW 10
20.10.2018 05:00:00 8,0 6,0 8 4 W 10
20.10.2018 04:00:00 9,0 7,0 9 5 W 10
20.10.2018 03:00:00 9,0 7,0 11 6 W 10
20.10.2018 02:00:00 9,0 7,0 8 4 W 10
20.10.2018 01:00:00 8,0 7,0 9 5 W 10
20.10.2018 00:00:00 7,0 6,0 5 3 W 10
19.10.2018 23:00:00 4,0 3,0 8 4 WSW 10
19.10.2018 22:00:00 4,0 3,0 2 1 - 10
19.10.2018 21:00:00 7,0 5,0 8 4 W 10
19.10.2018 20:00:00 3,0 3,0 8 4 W 10
19.10.2018 19:00:00 5,0 4,0 4 2 S 10
19.10.2018 18:00:00 10,0 5,0 4 2 WSW 10
19.10.2018 17:00:00 12,0 5,0 8 4 WSW 10
19.10.2018 16:00:00 13,0 6,0 5 3 - 10
19.10.2018 15:00:00 12,0 7,0 9 5 ENE 10
19.10.2018 14:00:00 12,0 6,0 5 3 N 10
19.10.2018 13:00:00 11,0 7,0 4 2 - 10
19.10.2018 12:00:00 9,0 6,0 4 2 - 10
19.10.2018 11:00:00 7,0 6,0 4 2 - 10
19.10.2018 10:00:00 5,0 5,0 5 3 - 10
19.10.2018 09:00:00 1,0 1,0 4 2 W 10
19.10.2018 08:00:00 0,0 0,0 2 1 - 10
19.10.2018 07:00:00 1,0 1,0 5 3 WNW 10
19.10.2018 06:00:00 1,0 1,0 8 4 WNW 10
19.10.2018 05:00:00 0,0 0,0 4 2 WNW 0,3
19.10.2018 04:00:00 2,0 2,0 5 3 W 0,9
19.10.2018 03:00:00 2,0 2,0 8 4 WNW 2,3
19.10.2018 02:00:00 4,0 4,0 8 4 W 10
19.10.2018 01:00:00 6,0 5,0 9 5 W 10
19.10.2018 00:00:00 6,0 5,0 9 5 WNW 10
18.10.2018 23:00:00 6,0 5,0 9 5 WNW 10
18.10.2018 22:00:00 7,0 5,0 13 7 WNW 10
18.10.2018 21:00:00 8,0 6,0 13 7 WNW 10
18.10.2018 20:00:00 9,0 6,0 13 7 WNW 10
18.10.2018 19:00:00 10,0 5,0 13 7 WNW 10
18.10.2018 18:00:00 12,0 5,0 9 5 WNW 10
18.10.2018 17:00:00 14,0 4,0 18 10 NW 10
18.10.2018 16:00:00 16,0 6,0 21 11 WNW 10
18.10.2018 15:00:00 16,0 7,0 15 8 NW 10
18.10.2018 14:00:00 16,0 7,0 21 11 NNW 10
18.10.2018 13:00:00 14,0 10,0 13 7 NW 10
18.10.2018 12:00:00 15,0 10,0 18 10 NW 10
18.10.2018 11:00:00 12,0 12,0 9 5 WNW 3,2
18.10.2018 10:00:00 12,0 12,0 9 5 W 2,0
18.10.2018 09:00:00 11,0 11,0 11 6 WNW 0,6
18.10.2018 08:00:00 10,0 10,0 11 6 WNW 0,3
18.10.2018 07:00:00 7,0 7,0 0 0 N 1,8
18.10.2018 06:00:00 6,0 6,0 0 0 N 2,2
18.10.2018 05:00:00 4,0 4,0 0 0 N 0,2
18.10.2018 04:00:00 4,0 4,0 4 2 NNW 0,1
18.10.2018 03:00:00 4,0 4,0 0 0 N 0,1
18.10.2018 02:00:00 5,0 5,0 0 0 N -
18.10.2018 01:00:00 6,0 6,0 0 0 N -
18.10.2018 00:00:00 6,0 6,0 5 3 WNW -
17.10.2018 23:00:00 6,0 6,0 4 2 NW 0,1
17.10.2018 22:00:00 7,0 7,0 0 0 N -

tt = Température de l'air
td = dewpoint
ff = Vitesse du vent
dd = Direction du vent
vv = visibility

stations d'obs. à proximité